sensor_id;sensor_type;location;lat;lon;timestamp;pressure;altitude;pressure_sealevel;temperature;humidity
43701;BME280;58809;47.984;7.964;2023-03-23T00:00:28;96689.22;;;17.76;51.17
43701;BME280;58809;47.984;7.964;2023-03-23T00:03:29;96690.38;;;17.80;51.17
43701;BME280;58809;47.984;7.964;2023-03-23T00:06:31;96687.22;;;17.83;51.14
43701;BME280;58809;47.984;7.964;2023-03-23T00:09:35;96693.66;;;17.82;51.09
43701;BME280;58809;47.984;7.964;2023-03-23T00:12:41;96682.97;;;17.70;51.07
43701;BME280;58809;47.984;7.964;2023-03-23T00:15:42;96690.34;;;17.63;51.08
43701;BME280;58809;47.984;7.964;2023-03-23T00:18:47;96685.81;;;17.64;51.14
43701;BME280;58809;47.984;7.964;2023-03-23T00:21:48;96685.66;;;17.70;50.94
43701;BME280;58809;47.984;7.964;2023-03-23T00:24:54;96677.06;;;17.68;50.75
43701;BME280;58809;47.984;7.964;2023-03-23T00:27:55;96684.97;;;17.63;51.23
43701;BME280;58809;47.984;7.964;2023-03-23T00:31:03;96679.97;;;17.67;50.92
43701;BME280;58809;47.984;7.964;2023-03-23T00:34:04;96672.69;;;17.62;50.89
43701;BME280;58809;47.984;7.964;2023-03-23T00:37:05;96678.34;;;17.66;51.13
43701;BME280;58809;47.984;7.964;2023-03-23T00:40:05;96672.38;;;17.76;50.90
43701;BME280;58809;47.984;7.964;2023-03-23T00:43:11;96678.06;;;17.79;50.52
43701;BME280;58809;47.984;7.964;2023-03-23T00:46:14;96682.00;;;17.88;50.15
43701;BME280;58809;47.984;7.964;2023-03-23T00:49:20;96671.50;;;17.99;49.87
43701;BME280;58809;47.984;7.964;2023-03-23T00:52:25;96664.78;;;18.30;48.76
43701;BME280;58809;47.984;7.964;2023-03-23T00:55:25;96664.19;;;18.45;48.77
43701;BME280;58809;47.984;7.964;2023-03-23T00:58:26;96653.28;;;18.52;48.42
43701;BME280;58809;47.984;7.964;2023-03-23T01:01:26;96657.94;;;18.56;48.78
43701;BME280;58809;47.984;7.964;2023-03-23T01:04:27;96655.75;;;18.53;48.72
43701;BME280;58809;47.984;7.964;2023-03-23T01:07:28;96645.78;;;18.49;49.01
43701;BME280;58809;47.984;7.964;2023-03-23T01:10:32;96650.88;;;18.50;48.82
43701;BME280;58809;47.984;7.964;2023-03-23T01:13:33;96657.22;;;18.44;49.09
43701;BME280;58809;47.984;7.964;2023-03-23T01:16:33;96637.69;;;18.65;47.89
43701;BME280;58809;47.984;7.964;2023-03-23T01:19:34;96645.81;;;19.10;46.91
43701;BME280;58809;47.984;7.964;2023-03-23T01:22:35;96635.28;;;19.03;47.22
43701;BME280;58809;47.984;7.964;2023-03-23T01:25:36;96642.66;;;19.13;47.24
43701;BME280;58809;47.984;7.964;2023-03-23T01:28:37;96631.47;;;18.99;47.68
43701;BME280;58809;47.984;7.964;2023-03-23T01:31:38;96621.44;;;18.89;47.97
43701;BME280;58809;47.984;7.964;2023-03-23T01:34:40;96616.16;;;18.77;48.24
43701;BME280;58809;47.984;7.964;2023-03-23T01:37:41;96610.91;;;18.65;49.06
43701;BME280;58809;47.984;7.964;2023-03-23T01:40:43;96606.34;;;18.66;48.22
43701;BME280;58809;47.984;7.964;2023-03-23T01:43:58;96611.28;;;19.13;47.00
43701;BME280;58809;47.984;7.964;2023-03-23T01:47:00;96604.09;;;19.19;47.00
43701;BME280;58809;47.984;7.964;2023-03-23T01:50:00;96603.09;;;19.03;47.54
43701;BME280;58809;47.984;7.964;2023-03-23T01:53:05;96590.13;;;18.95;47.64
43701;BME280;58809;47.984;7.964;2023-03-23T01:56:09;96591.63;;;19.08;47.59
43701;BME280;58809;47.984;7.964;2023-03-23T01:59:12;96588.00;;;19.19;46.78
43701;BME280;58809;47.984;7.964;2023-03-23T02:02:19;96582.16;;;19.22;46.95
43701;BME280;58809;47.984;7.964;2023-03-23T02:05:34;96586.19;;;19.24;46.44
43701;BME280;58809;47.984;7.964;2023-03-23T02:08:44;96565.00;;;19.50;44.79
43701;BME280;58809;47.984;7.964;2023-03-23T02:11:46;96567.19;;;19.80;43.37
43701;BME280;58809;47.984;7.964;2023-03-23T02:14:48;96579.06;;;19.90;42.92
43701;BME280;58809;47.984;7.964;2023-03-23T02:17:57;96574.81;;;19.94;42.37
43701;BME280;58809;47.984;7.964;2023-03-23T02:31:25;96560.53;;;20.26;40.02
43701;BME280;58809;47.984;7.964;2023-03-23T02:34:36;96561.88;;;20.23;39.89
43701;BME280;58809;47.984;7.964;2023-03-23T02:40:50;96560.50;;;20.21;39.80
43701;BME280;58809;47.984;7.964;2023-03-23T02:43:52;96559.13;;;20.18;39.71
43701;BME280;58809;47.984;7.964;2023-03-23T02:46:53;96544.13;;;20.22;39.65
43701;BME280;58809;47.984;7.964;2023-03-23T02:49:56;96539.03;;;20.26;39.66
43701;BME280;58809;47.984;7.964;2023-03-23T02:52:59;96529.38;;;20.25;39.58
43701;BME280;58809;47.984;7.964;2023-03-23T02:56:01;96529.84;;;20.16;39.88
43701;BME280;58809;47.984;7.964;2023-03-23T02:59:03;96529.84;;;20.11;40.07
43701;BME280;58809;47.984;7.964;2023-03-23T03:02:25;96523.38;;;20.12;40.01
43701;BME280;58809;47.984;7.964;2023-03-23T03:05:53;96523.56;;;20.00;40.22
43701;BME280;58809;47.984;7.964;2023-03-23T03:09:07;96522.69;;;19.90;40.54
43701;BME280;58809;47.984;7.964;2023-03-23T03:12:37;96528.22;;;19.78;40.88
43701;BME280;58809;47.984;7.964;2023-03-23T03:15:39;96532.84;;;19.55;41.64
43701;BME280;58809;47.984;7.964;2023-03-23T03:21:50;96525.47;;;19.40;42.13
43701;BME280;58809;47.984;7.964;2023-03-23T03:24:59;96524.66;;;19.40;42.41
43701;BME280;58809;47.984;7.964;2023-03-23T03:28:01;96526.44;;;19.29;42.96
43701;BME280;58809;47.984;7.964;2023-03-23T03:31:20;96517.53;;;19.23;43.21
43701;BME280;58809;47.984;7.964;2023-03-23T03:34:22;96515.50;;;19.09;44.13
43701;BME280;58809;47.984;7.964;2023-03-23T03:37:25;96518.78;;;18.89;44.99
43701;BME280;58809;47.984;7.964;2023-03-23T03:40:26;96523.41;;;18.76;45.54
43701;BME280;58809;47.984;7.964;2023-03-23T03:43:27;96529.56;;;18.77;45.78
43701;BME280;58809;47.984;7.964;2023-03-23T03:46:28;96513.50;;;18.77;46.03
43701;BME280;58809;47.984;7.964;2023-03-23T03:49:31;96521.28;;;18.78;46.37
43701;BME280;58809;47.984;7.964;2023-03-23T03:52:31;96514.25;;;18.72;46.33
43701;BME280;58809;47.984;7.964;2023-03-23T03:55:33;96515.56;;;18.70;46.60
43701;BME280;58809;47.984;7.964;2023-03-23T03:58:42;96517.44;;;18.69;46.75
43701;BME280;58809;47.984;7.964;2023-03-23T04:01:49;96512.25;;;18.62;47.19
43701;BME280;58809;47.984;7.964;2023-03-23T04:04:54;96489.75;;;18.63;46.95
43701;BME280;58809;47.984;7.964;2023-03-23T04:07:55;96495.69;;;18.65;46.74
43701;BME280;58809;47.984;7.964;2023-03-23T04:11:03;96506.66;;;18.86;45.29
43701;BME280;58809;47.984;7.964;2023-03-23T04:14:04;96504.00;;;19.13;44.36
43701;BME280;58809;47.984;7.964;2023-03-23T04:17:16;96508.09;;;19.21;43.49
43701;BME280;58809;47.984;7.964;2023-03-23T04:20:17;96519.25;;;19.35;43.07
43701;BME280;58809;47.984;7.964;2023-03-23T04:23:22;96511.69;;;19.32;43.10
43701;BME280;58809;47.984;7.964;2023-03-23T04:26:28;96515.91;;;19.22;43.41
43701;BME280;58809;47.984;7.964;2023-03-23T04:29:33;96518.19;;;19.09;43.97
43701;BME280;58809;47.984;7.964;2023-03-23T04:32:53;96527.88;;;18.88;44.59
43701;BME280;58809;47.984;7.964;2023-03-23T04:36:00;96529.28;;;18.95;44.03
43701;BME280;58809;47.984;7.964;2023-03-23T04:39:13;96532.09;;;19.33;42.44
43701;BME280;58809;47.984;7.964;2023-03-23T04:42:14;96533.09;;;19.81;40.99
43701;BME280;58809;47.984;7.964;2023-03-23T04:45:35;96545.34;;;20.04;40.49
43701;BME280;58809;47.984;7.964;2023-03-23T04:48:39;96544.22;;;19.95;40.61
43701;BME280;58809;47.984;7.964;2023-03-23T04:51:47;96555.06;;;20.10;40.43
43701;BME280;58809;47.984;7.964;2023-03-23T04:55:00;96550.19;;;20.07;40.20
43701;BME280;58809;47.984;7.964;2023-03-23T04:58:07;96549.78;;;20.21;39.94
43701;BME280;58809;47.984;7.964;2023-03-23T05:01:17;96551.91;;;20.24;39.79
43701;BME280;58809;47.984;7.964;2023-03-23T05:04:31;96542.81;;;20.25;39.78
43701;BME280;58809;47.984;7.964;2023-03-23T05:07:40;96565.63;;;20.27;39.96
43701;BME280;58809;47.984;7.964;2023-03-23T05:10:41;96571.28;;;20.26;40.25
43701;BME280;58809;47.984;7.964;2023-03-23T05:13:46;96579.81;;;20.17;40.25
43701;BME280;58809;47.984;7.964;2023-03-23T05:16:47;96579.03;;;20.22;40.04
43701;BME280;58809;47.984;7.964;2023-03-23T05:19:51;96578.56;;;20.30;40.06
43701;BME280;58809;47.984;7.964;2023-03-23T05:23:08;96575.81;;;20.20;40.46
43701;BME280;58809;47.984;7.964;2023-03-23T05:26:10;96568.56;;;20.21;40.20
43701;BME280;58809;47.984;7.964;2023-03-23T05:29:10;96575.09;;;20.30;40.13
43701;BME280;58809;47.984;7.964;2023-03-23T05:32:21;96575.28;;;20.23;40.32
43701;BME280;58809;47.984;7.964;2023-03-23T05:35:29;96575.50;;;20.16;40.53
43701;BME280;58809;47.984;7.964;2023-03-23T05:38:30;96583.47;;;20.01;40.77
43701;BME280;58809;47.984;7.964;2023-03-23T05:41:31;96578.69;;;20.08;40.93
43701;BME280;58809;47.984;7.964;2023-03-23T05:44:34;96582.97;;;20.09;40.93
43701;BME280;58809;47.984;7.964;2023-03-23T05:47:35;96579.56;;;19.87;41.25
43701;BME280;58809;47.984;7.964;2023-03-23T05:50:42;96608.97;;;19.98;41.26
43701;BME280;58809;47.984;7.964;2023-03-23T05:53:42;96609.16;;;19.92;41.16
43701;BME280;58809;47.984;7.964;2023-03-23T05:56:45;96599.44;;;19.86;41.55
43701;BME280;58809;47.984;7.964;2023-03-23T05:59:46;96597.94;;;20.00;41.29
43701;BME280;58809;47.984;7.964;2023-03-23T06:02:54;96616.72;;;19.95;41.56
43701;BME280;58809;47.984;7.964;2023-03-23T06:06:03;96622.59;;;19.92;41.72
43701;BME280;58809;47.984;7.964;2023-03-23T06:09:15;96610.00;;;19.43;42.33
43701;BME280;58809;47.984;7.964;2023-03-23T06:12:37;96637.19;;;19.74;42.07
43701;BME280;58809;47.984;7.964;2023-03-23T06:16:04;96638.91;;;19.85;42.17
43701;BME280;58809;47.984;7.964;2023-03-23T06:19:24;96653.28;;;19.74;42.51
43701;BME280;58809;47.984;7.964;2023-03-23T06:22:41;96649.72;;;19.68;42.70
43701;BME280;58809;47.984;7.964;2023-03-23T06:25:48;96642.22;;;19.70;43.02
43701;BME280;58809;47.984;7.964;2023-03-23T06:28:49;96636.53;;;19.67;43.44
43701;BME280;58809;47.984;7.964;2023-03-23T06:32:01;96646.41;;;19.61;43.95
43701;BME280;58809;47.984;7.964;2023-03-23T06:35:04;96625.72;;;19.56;43.81
43701;BME280;58809;47.984;7.964;2023-03-23T06:38:23;96647.81;;;19.69;43.87
43701;BME280;58809;47.984;7.964;2023-03-23T06:41:28;96644.22;;;19.58;44.11
43701;BME280;58809;47.984;7.964;2023-03-23T06:44:28;96626.88;;;19.66;43.52
43701;BME280;58809;47.984;7.964;2023-03-23T06:47:30;96620.94;;;19.86;43.33
43701;BME280;58809;47.984;7.964;2023-03-23T06:50:31;96616.66;;;19.90;43.28
43701;BME280;58809;47.984;7.964;2023-03-23T06:53:31;96631.09;;;19.84;43.55
43701;BME280;58809;47.984;7.964;2023-03-23T06:56:33;96638.34;;;19.83;43.50
43701;BME280;58809;47.984;7.964;2023-03-23T06:59:34;96640.22;;;19.83;43.49
43701;BME280;58809;47.984;7.964;2023-03-23T07:02:35;96647.41;;;19.77;43.76
43701;BME280;58809;47.984;7.964;2023-03-23T07:05:36;96655.00;;;19.85;43.61
43701;BME280;58809;47.984;7.964;2023-03-23T07:08:38;96660.06;;;19.81;43.54
43701;BME280;58809;47.984;7.964;2023-03-23T07:11:43;96661.19;;;19.86;43.59
43701;BME280;58809;47.984;7.964;2023-03-23T07:14:56;96673.63;;;19.70;43.75
43701;BME280;58809;47.984;7.964;2023-03-23T07:17:56;96675.44;;;19.64;43.62
43701;BME280;58809;47.984;7.964;2023-03-23T07:21:06;96661.78;;;19.66;43.71
43701;BME280;58809;47.984;7.964;2023-03-23T07:24:11;96662.13;;;19.74;44.00
43701;BME280;58809;47.984;7.964;2023-03-23T07:27:48;96676.00;;;19.66;44.86
43701;BME280;58809;47.984;7.964;2023-03-23T07:30:51;96665.97;;;19.78;44.73
43701;BME280;58809;47.984;7.964;2023-03-23T07:33:51;96682.88;;;19.79;44.44
43701;BME280;58809;47.984;7.964;2023-03-23T07:36:53;96690.75;;;19.64;44.57
43701;BME280;58809;47.984;7.964;2023-03-23T07:39:55;96686.16;;;19.64;45.02
43701;BME280;58809;47.984;7.964;2023-03-23T07:42:56;96706.72;;;19.53;45.17
43701;BME280;58809;47.984;7.964;2023-03-23T07:46:23;96698.13;;;19.73;45.37
43701;BME280;58809;47.984;7.964;2023-03-23T07:49:37;96701.66;;;19.57;46.34
43701;BME280;58809;47.984;7.964;2023-03-23T07:52:49;96711.09;;;18.98;48.02
43701;BME280;58809;47.984;7.964;2023-03-23T07:55:53;96711.69;;;18.83;48.87
43701;BME280;58809;47.984;7.964;2023-03-23T07:59:25;96717.38;;;18.70;49.83
43701;BME280;58809;47.984;7.964;2023-03-23T08:02:27;96722.50;;;18.89;50.01
43701;BME280;58809;47.984;7.964;2023-03-23T08:05:50;96717.41;;;19.09;50.00
43701;BME280;58809;47.984;7.964;2023-03-23T08:09:20;96737.25;;;19.08;50.49
43701;BME280;58809;47.984;7.964;2023-03-23T08:12:24;96752.38;;;18.97;50.77
43701;BME280;58809;47.984;7.964;2023-03-23T08:15:48;96748.16;;;19.01;50.97
43701;BME280;58809;47.984;7.964;2023-03-23T08:19:22;96765.38;;;19.06;51.29
43701;BME280;58809;47.984;7.964;2023-03-23T08:22:50;96762.59;;;19.00;51.59
43701;BME280;58809;47.984;7.964;2023-03-23T08:26:11;96763.16;;;19.02;51.47
43701;BME280;58809;47.984;7.964;2023-03-23T08:29:35;96754.34;;;18.85;52.21
43701;BME280;58809;47.984;7.964;2023-03-23T08:32:47;96734.59;;;19.30;51.71
43701;BME280;58809;47.984;7.964;2023-03-23T08:36:03;96746.66;;;19.50;52.70
43701;BME280;58809;47.984;7.964;2023-03-23T08:39:23;96744.28;;;19.31;53.69
43701;BME280;58809;47.984;7.964;2023-03-23T08:42:33;96734.56;;;19.08;55.36
43701;BME280;58809;47.984;7.964;2023-03-23T08:45:34;96753.25;;;19.03;56.42
43701;BME280;58809;47.984;7.964;2023-03-23T08:48:54;96741.50;;;18.87;57.18
43701;BME280;58809;47.984;7.964;2023-03-23T08:52:15;96735.47;;;18.97;57.08
43701;BME280;58809;47.984;7.964;2023-03-23T08:55:38;96743.47;;;19.14;57.02
43701;BME280;58809;47.984;7.964;2023-03-23T08:58:48;96742.94;;;19.34;57.09
43701;BME280;58809;47.984;7.964;2023-03-23T09:02:10;96734.28;;;19.49;57.08
43701;BME280;58809;47.984;7.964;2023-03-23T09:05:27;96756.81;;;19.48;57.31
43701;BME280;58809;47.984;7.964;2023-03-23T09:08:57;96752.81;;;19.28;58.17
43701;BME280;58809;47.984;7.964;2023-03-23T09:11:59;96757.19;;;19.34;58.20
43701;BME280;58809;47.984;7.964;2023-03-23T09:15:00;96759.91;;;19.56;57.82
43701;BME280;58809;47.984;7.964;2023-03-23T09:18:01;96762.91;;;19.82;57.56
43701;BME280;58809;47.984;7.964;2023-03-23T09:21:02;96764.25;;;20.07;57.36
43701;BME280;58809;47.984;7.964;2023-03-23T09:24:03;96764.16;;;19.74;58.33
43701;BME280;58809;47.984;7.964;2023-03-23T09:27:04;96762.22;;;19.92;58.35
43701;BME280;58809;47.984;7.964;2023-03-23T09:30:08;96756.00;;;20.13;58.11
43701;BME280;58809;47.984;7.964;2023-03-23T09:33:08;96762.97;;;21.01;56.04
43701;BME280;58809;47.984;7.964;2023-03-23T09:36:09;96755.31;;;21.25;55.31
43701;BME280;58809;47.984;7.964;2023-03-23T09:39:12;96745.56;;;21.19;55.56
43701;BME280;58809;47.984;7.964;2023-03-23T09:48:59;96740.69;;;21.59;54.55
43701;BME280;58809;47.984;7.964;2023-03-23T09:52:11;96752.25;;;21.54;53.99
43701;BME280;58809;47.984;7.964;2023-03-23T09:55:18;96748.22;;;21.57;53.44
43701;BME280;58809;47.984;7.964;2023-03-23T10:01:50;96740.66;;;21.06;50.95
43701;BME280;58809;47.984;7.964;2023-03-23T10:04:55;96750.75;;;20.88;51.71
43701;BME280;58809;47.984;7.964;2023-03-23T10:07:56;96740.97;;;20.77;51.33
43701;BME280;58809;47.984;7.964;2023-03-23T10:11:07;96742.03;;;20.71;52.04
43701;BME280;58809;47.984;7.964;2023-03-23T10:23:53;96747.53;;;20.91;49.17
43701;BME280;58809;47.984;7.964;2023-03-23T10:27:11;96748.00;;;21.21;47.28
43701;BME280;58809;47.984;7.964;2023-03-23T10:30:18;96739.28;;;21.46;47.31
43701;BME280;58809;47.984;7.964;2023-03-23T10:33:24;96748.06;;;21.94;46.19
43701;BME280;58809;47.984;7.964;2023-03-23T10:36:29;96749.47;;;23.45;44.47
43701;BME280;58809;47.984;7.964;2023-03-23T10:39:38;96741.53;;;24.30;41.96
43701;BME280;58809;47.984;7.964;2023-03-23T10:42:41;96748.72;;;24.45;40.28
43701;BME280;58809;47.984;7.964;2023-03-23T10:45:43;96736.63;;;24.37;39.30
43701;BME280;58809;47.984;7.964;2023-03-23T10:48:45;96740.63;;;24.39;38.72
43701;BME280;58809;47.984;7.964;2023-03-23T10:52:13;96723.66;;;24.34;38.56
43701;BME280;58809;47.984;7.964;2023-03-23T10:55:19;96735.97;;;24.11;38.34
43701;BME280;58809;47.984;7.964;2023-03-23T10:58:26;96733.94;;;24.32;38.25
43701;BME280;58809;47.984;7.964;2023-03-23T11:01:33;96732.19;;;24.51;37.96
43701;BME280;58809;47.984;7.964;2023-03-23T11:04:35;96751.91;;;24.52;38.15
43701;BME280;58809;47.984;7.964;2023-03-23T11:07:35;96735.19;;;24.05;38.23
43701;BME280;58809;47.984;7.964;2023-03-23T11:10:39;96747.97;;;23.79;38.22
43701;BME280;58809;47.984;7.964;2023-03-23T11:13:46;96746.31;;;23.93;38.19
43701;BME280;58809;47.984;7.964;2023-03-23T11:16:53;96753.81;;;24.07;37.77
43701;BME280;58809;47.984;7.964;2023-03-23T11:19:55;96736.13;;;24.30;37.48
43701;BME280;58809;47.984;7.964;2023-03-23T11:22:56;96738.88;;;24.64;36.68
43701;BME280;58809;47.984;7.964;2023-03-23T11:29:21;96741.72;;;25.07;36.88
43701;BME280;58809;47.984;7.964;2023-03-23T11:32:24;96767.19;;;24.77;36.99
43701;BME280;58809;47.984;7.964;2023-03-23T11:35:27;96738.03;;;24.24;37.46
43701;BME280;58809;47.984;7.964;2023-03-23T11:38:28;96731.53;;;24.99;36.88
43701;BME280;58809;47.984;7.964;2023-03-23T11:41:33;96739.16;;;25.50;36.53
43701;BME280;58809;47.984;7.964;2023-03-23T11:44:41;96737.41;;;25.60;36.14
43701;BME280;58809;47.984;7.964;2023-03-23T11:47:49;96743.22;;;25.24;36.64
43701;BME280;58809;47.984;7.964;2023-03-23T11:50:58;96743.75;;;25.50;36.49
43701;BME280;58809;47.984;7.964;2023-03-23T11:54:07;96745.34;;;25.51;36.71
43701;BME280;58809;47.984;7.964;2023-03-23T11:57:11;96739.91;;;25.32;36.60
43701;BME280;58809;47.984;7.964;2023-03-23T12:00:19;96721.31;;;24.91;36.91
43701;BME280;58809;47.984;7.964;2023-03-23T12:10:22;96724.69;;;24.77;36.81
43701;BME280;58809;47.984;7.964;2023-03-23T12:17:37;96740.31;;;24.46;37.84
43701;BME280;58809;47.984;7.964;2023-03-23T12:21:00;96717.81;;;24.56;37.06
43701;BME280;58809;47.984;7.964;2023-03-23T12:30:51;96706.75;;;24.87;36.96
43701;BME280;58809;47.984;7.964;2023-03-23T12:34:01;96711.38;;;25.10;36.57
43701;BME280;58809;47.984;7.964;2023-03-23T12:40:53;96712.84;;;24.29;37.54
43701;BME280;58809;47.984;7.964;2023-03-23T12:44:07;96706.78;;;24.13;37.88
43701;BME280;58809;47.984;7.964;2023-03-23T12:47:27;96701.94;;;24.05;37.94
43701;BME280;58809;47.984;7.964;2023-03-23T12:50:59;96696.22;;;23.56;37.56
43701;BME280;58809;47.984;7.964;2023-03-23T12:54:14;96710.38;;;23.28;37.76
43701;BME280;58809;47.984;7.964;2023-03-23T12:57:37;96719.50;;;23.47;37.25
43701;BME280;58809;47.984;7.964;2023-03-23T13:00:54;96716.19;;;23.66;37.09
43701;BME280;58809;47.984;7.964;2023-03-23T13:04:26;96725.91;;;23.67;37.44
43701;BME280;58809;47.984;7.964;2023-03-23T13:07:33;96711.66;;;23.45;37.83
43701;BME280;58809;47.984;7.964;2023-03-23T13:10:51;96708.69;;;23.52;37.35
43701;BME280;58809;47.984;7.964;2023-03-23T13:13:57;96707.06;;;23.51;37.81
43701;BME280;58809;47.984;7.964;2023-03-23T13:20:46;96706.38;;;23.15;37.97
43701;BME280;58809;47.984;7.964;2023-03-23T13:23:52;96701.81;;;23.10;38.60
43701;BME280;58809;47.984;7.964;2023-03-23T13:26:54;96701.97;;;23.39;38.40
43701;BME280;58809;47.984;7.964;2023-03-23T13:29:58;96698.41;;;23.54;38.28
43701;BME280;58809;47.984;7.964;2023-03-23T13:33:06;96704.16;;;23.37;39.00
43701;BME280;58809;47.984;7.964;2023-03-23T13:36:12;96702.78;;;23.40;39.03
43701;BME280;58809;47.984;7.964;2023-03-23T13:39:28;96707.91;;;23.41;39.30
43701;BME280;58809;47.984;7.964;2023-03-23T13:42:30;96696.88;;;23.33;39.41
43701;BME280;58809;47.984;7.964;2023-03-23T13:45:43;96694.16;;;23.33;39.25
43701;BME280;58809;47.984;7.964;2023-03-23T13:48:50;96713.66;;;23.14;39.15
43701;BME280;58809;47.984;7.964;2023-03-23T13:52:06;96690.19;;;23.10;38.74
43701;BME280;58809;47.984;7.964;2023-03-23T13:58:25;96680.38;;;23.44;38.61
43701;BME280;58809;47.984;7.964;2023-03-23T14:01:36;96684.66;;;23.51;37.93
43701;BME280;58809;47.984;7.964;2023-03-23T14:04:36;96680.84;;;23.57;37.87
43701;BME280;58809;47.984;7.964;2023-03-23T14:07:55;96671.75;;;23.37;37.31
43701;BME280;58809;47.984;7.964;2023-03-23T14:10:58;96674.75;;;23.20;38.00
43701;BME280;58809;47.984;7.964;2023-03-23T14:14:06;96674.22;;;23.18;37.92
43701;BME280;58809;47.984;7.964;2023-03-23T14:20:23;96661.81;;;23.22;38.20
43701;BME280;58809;47.984;7.964;2023-03-23T14:23:25;96655.91;;;23.00;38.33
43701;BME280;58809;47.984;7.964;2023-03-23T14:26:25;96657.03;;;22.94;38.69
43701;BME280;58809;47.984;7.964;2023-03-23T14:29:26;96662.69;;;22.97;38.62
43701;BME280;58809;47.984;7.964;2023-03-23T14:32:37;96650.03;;;22.82;38.66
43701;BME280;58809;47.984;7.964;2023-03-23T14:35:50;96649.47;;;22.85;38.69
43701;BME280;58809;47.984;7.964;2023-03-23T14:42:37;96648.09;;;23.14;38.58
43701;BME280;58809;47.984;7.964;2023-03-23T14:45:38;96642.41;;;23.15;38.70
43701;BME280;58809;47.984;7.964;2023-03-23T14:48:39;96628.94;;;23.10;38.41
43701;BME280;58809;47.984;7.964;2023-03-23T14:51:48;96630.50;;;23.21;38.27
43701;BME280;58809;47.984;7.964;2023-03-23T14:54:49;96623.72;;;23.34;38.22
43701;BME280;58809;47.984;7.964;2023-03-23T14:57:50;96622.34;;;23.37;38.95
43701;BME280;58809;47.984;7.964;2023-03-23T15:04:04;96621.78;;;23.45;38.41
43701;BME280;58809;47.984;7.964;2023-03-23T15:07:08;96628.75;;;23.46;38.19
43701;BME280;58809;47.984;7.964;2023-03-23T15:10:15;96611.00;;;23.40;38.26
43701;BME280;58809;47.984;7.964;2023-03-23T15:13:16;96614.72;;;23.49;38.31
43701;BME280;58809;47.984;7.964;2023-03-23T15:16:23;96609.31;;;23.49;38.91
43701;BME280;58809;47.984;7.964;2023-03-23T15:19:36;96613.66;;;23.45;39.78
43701;BME280;58809;47.984;7.964;2023-03-23T15:22:45;96607.75;;;23.43;40.41
43701;BME280;58809;47.984;7.964;2023-03-23T15:25:51;96619.34;;;23.43;40.44
43701;BME280;58809;47.984;7.964;2023-03-23T15:32:10;96613.00;;;22.98;42.12
43701;BME280;58809;47.984;7.964;2023-03-23T15:35:14;96607.69;;;22.83;41.97
43701;BME280;58809;47.984;7.964;2023-03-23T15:38:28;96608.22;;;22.85;41.79
43701;BME280;58809;47.984;7.964;2023-03-23T15:41:31;96603.09;;;22.83;41.84
43701;BME280;58809;47.984;7.964;2023-03-23T15:44:35;96601.75;;;22.86;41.69
43701;BME280;58809;47.984;7.964;2023-03-23T15:50:42;96607.63;;;22.93;41.43
43701;BME280;58809;47.984;7.964;2023-03-23T15:53:44;96603.31;;;23.02;41.31
43701;BME280;58809;47.984;7.964;2023-03-23T15:56:45;96602.22;;;23.03;40.22
43701;BME280;58809;47.984;7.964;2023-03-23T15:59:46;96604.91;;;23.14;39.89
43701;BME280;58809;47.984;7.964;2023-03-23T16:02:51;96608.94;;;23.11;38.98
43701;BME280;58809;47.984;7.964;2023-03-23T16:05:55;96597.66;;;23.04;38.68
43701;BME280;58809;47.984;7.964;2023-03-23T16:08:58;96597.09;;;23.07;38.44
43701;BME280;58809;47.984;7.964;2023-03-23T16:12:00;96593.34;;;23.08;38.55
43701;BME280;58809;47.984;7.964;2023-03-23T16:15:01;96602.50;;;22.97;38.59
43701;BME280;58809;47.984;7.964;2023-03-23T16:18:03;96596.56;;;22.95;38.31
43701;BME280;58809;47.984;7.964;2023-03-23T16:21:05;96601.44;;;22.93;38.48
43701;BME280;58809;47.984;7.964;2023-03-23T16:24:08;96601.69;;;23.01;38.17
43701;BME280;58809;47.984;7.964;2023-03-23T16:27:10;96599.00;;;22.91;38.19
43701;BME280;58809;47.984;7.964;2023-03-23T16:30:17;96607.41;;;22.90;38.30
43701;BME280;58809;47.984;7.964;2023-03-23T16:33:19;96607.88;;;22.97;38.10
43701;BME280;58809;47.984;7.964;2023-03-23T16:36:21;96606.84;;;22.93;38.44
43701;BME280;58809;47.984;7.964;2023-03-23T16:39:22;96605.50;;;22.90;38.67
43701;BME280;58809;47.984;7.964;2023-03-23T16:42:24;96610.31;;;22.93;38.81
43701;BME280;58809;47.984;7.964;2023-03-23T16:45:25;96607.94;;;22.86;39.32
43701;BME280;58809;47.984;7.964;2023-03-23T16:48:27;96604.19;;;22.77;40.14
43701;BME280;58809;47.984;7.964;2023-03-23T16:51:29;96611.50;;;22.51;41.48
43701;BME280;58809;47.984;7.964;2023-03-23T16:54:30;96612.88;;;22.48;41.89
43701;BME280;58809;47.984;7.964;2023-03-23T16:57:33;96600.75;;;22.36;42.10
43701;BME280;58809;47.984;7.964;2023-03-23T17:00:36;96616.94;;;22.36;41.30
43701;BME280;58809;47.984;7.964;2023-03-23T17:03:39;96608.28;;;22.49;40.87
43701;BME280;58809;47.984;7.964;2023-03-23T17:06:44;96610.16;;;22.59;40.43
43701;BME280;58809;47.984;7.964;2023-03-23T17:09:46;96604.25;;;22.57;40.40
43701;BME280;58809;47.984;7.964;2023-03-23T17:12:48;96602.09;;;22.59;39.83
43701;BME280;58809;47.984;7.964;2023-03-23T17:15:52;96599.88;;;22.71;39.37
43701;BME280;58809;47.984;7.964;2023-03-23T17:18:54;96602.84;;;22.75;39.35
43701;BME280;58809;47.984;7.964;2023-03-23T17:21:56;96595.31;;;22.56;39.12
43701;BME280;58809;47.984;7.964;2023-03-23T17:24:57;96592.63;;;22.56;39.18
43701;BME280;58809;47.984;7.964;2023-03-23T17:27:59;96593.41;;;22.67;38.76
43701;BME280;58809;47.984;7.964;2023-03-23T17:31:07;96587.75;;;22.63;38.82
43701;BME280;58809;47.984;7.964;2023-03-23T17:34:09;96601.78;;;22.71;38.58
43701;BME280;58809;47.984;7.964;2023-03-23T17:37:10;96598.53;;;22.68;38.56
43701;BME280;58809;47.984;7.964;2023-03-23T17:40:12;96599.59;;;22.73;38.41
43701;BME280;58809;47.984;7.964;2023-03-23T17:43:14;96602.03;;;22.69;38.42
43701;BME280;58809;47.984;7.964;2023-03-23T17:46:16;96596.91;;;22.78;38.25
43701;BME280;58809;47.984;7.964;2023-03-23T17:49:18;96600.97;;;22.75;38.31
43701;BME280;58809;47.984;7.964;2023-03-23T17:52:20;96603.13;;;22.73;38.38